Time;durP1;ratioP1;P1;durP2;ratioP2;P2;SDS_P1;SDS_P2;PMS_P1;PMS_P2;Temp;Humidity;BMP_temperature;BMP_pressure;BME280_temperature;BME280_humidity;BME280_pressure;Samples;Min_cycle;Max_cycle;Signal;HPM_P1;HPM_P2
2022/04/03 00:00:49;;;;;;;5.30;1.98;;;-4.40;99.90;;;;;;5088822;28;20048;-42
2022/04/03 00:03:15;;;;;;;5.40;1.98;;;-4.40;99.90;;;;;;5088466;28;20050;-42
2022/04/03 00:05:43;;;;;;;7.28;1.88;;;-4.40;99.90;;;;;;5088520;28;20498;-40
2022/04/03 00:08:12;;;;;;;4.95;1.98;;;-4.40;99.90;;;;;;5088011;28;20060;-42
2022/04/03 00:10:39;;;;;;;2.78;1.40;;;-4.40;99.90;;;;;;5088613;28;20052;-43
2022/04/03 00:13:06;;;;;;;3.90;1.52;;;-4.30;99.90;;;;;;5088805;28;20052;-41
2022/04/03 00:15:33;;;;;;;3.75;1.60;;;-4.30;99.90;;;;;;5092191;28;20032;-41
2022/04/03 00:17:59;;;;;;;6.38;2.10;;;-4.40;99.90;;;;;;5092432;28;20043;-42
2022/04/03 00:20:25;;;;;;;4.47;1.45;;;-4.40;99.90;;;;;;5092601;28;20119;-41
2022/04/03 00:22:52;;;;;;;5.15;1.95;;;-3.60;99.90;;;;;;5092056;28;20044;-42
2022/04/03 00:25:19;;;;;;;2.78;1.67;;;-4.30;99.90;;;;;;5092314;28;20122;-41
2022/04/03 00:27:45;;;;;;;3.75;2.15;;;-4.20;99.90;;;;;;5092190;28;20082;-41
2022/04/03 00:30:12;;;;;;;3.60;1.58;;;-4.20;99.90;;;;;;5092199;28;20047;-42
2022/04/03 00:32:38;;;;;;;7.50;2.25;;;-4.00;99.90;;;;;;5092295;28;20125;-42
2022/04/03 00:35:04;;;;;;;4.68;1.60;;;-4.20;99.90;;;;;;5092178;28;20063;-41
2022/04/03 00:37:30;;;;;;;4.88;1.95;;;-4.20;99.90;;;;;;5091725;28;20044;-42
2022/04/03 00:39:56;;;;;;;3.60;1.70;;;-4.10;99.90;;;;;;5091438;28;20046;-43
2022/04/03 00:42:22;;;;;;;6.03;1.88;;;-4.00;99.90;;;;;;5073584;28;20115;-42
2022/04/03 00:44:48;;;;;;;3.75;1.50;;;-4.10;99.90;;;;;;5091751;28;20047;-42
2022/04/03 00:47:16;;;;;;;6.55;2.78;;;-4.00;99.90;;;;;;5091557;28;20051;-42
2022/04/03 00:49:42;;;;;;;5.78;1.67;;;-3.90;99.90;;;;;;5091292;28;20043;-42
2022/04/03 00:52:08;;;;;;;7.70;1.73;;;-4.00;99.90;;;;;;5091883;28;20584;-44
2022/04/03 00:54:35;;;;;;;7.32;1.80;;;-3.70;99.90;;;;;;5073141;28;20512;-41
2022/04/03 00:57:05;;;;;;;6.13;1.90;;;-3.70;99.90;;;;;;5091373;28;20756;-43
2022/04/03 00:59:31;;;;;;;4.47;1.52;;;-3.80;99.90;;;;;;5091525;28;20075;-42
2022/04/03 01:01:56;;;;;;;2.70;1.48;;;-3.90;99.90;;;;;;5091856;28;20129;-44
2022/04/03 01:04:22;;;;;;;4.40;1.55;;;-3.80;99.90;;;;;;5091508;28;20036;-42
2022/04/03 01:06:48;;;;;;;5.03;2.20;;;-3.70;99.90;;;;;;5091144;28;20046;-43
2022/04/03 01:09:14;;;;;;;6.80;2.00;;;-3.70;99.90;;;;;;5091399;28;20478;-43
2022/04/03 01:11:40;;;;;;;4.63;2.00;;;-3.70;99.90;;;;;;5091465;28;20086;-41
2022/04/03 01:14:06;;;;;;;5.43;2.10;;;-3.70;99.90;;;;;;5091685;28;20798;-42
2022/04/03 01:16:33;;;;;;;4.72;1.85;;;-3.80;99.90;;;;;;5091573;28;20386;-41
2022/04/03 01:18:59;;;;;;;7.60;2.05;;;-3.70;99.90;;;;;;5091409;28;20068;-41
2022/04/03 01:21:24;;;;;;;4.07;1.65;;;-3.70;99.90;;;;;;5091357;28;20124;-42
2022/04/03 01:23:50;;;;;;;4.68;1.83;;;-3.70;99.90;;;;;;5090800;28;20032;-41
2022/04/03 01:26:16;;;;;;;4.93;2.20;;;-3.70;99.90;;;;;;5089658;28;20079;-41
2022/04/03 01:28:43;;;;;;;11.90;2.25;;;-3.80;99.90;;;;;;5072034;28;20173;-42
2022/04/03 01:31:09;;;;;;;6.40;2.50;;;-4.00;99.90;;;;;;5091136;28;20151;-41
2022/04/03 01:33:35;;;;;;;4.38;1.90;;;-4.00;99.90;;;;;;5091130;28;20036;-41
2022/04/03 01:36:00;;;;;;;4.43;2.08;;;-4.10;99.90;;;;;;5091148;28;20070;-42
2022/04/03 01:38:26;;;;;;;4.88;2.28;;;-4.10;99.90;;;;;;5090700;28;20036;-41
2022/04/03 01:40:52;;;;;;;7.15;2.38;;;-4.20;99.90;;;;;;5090638;28;20136;-41
2022/04/03 01:43:17;;;;;;;4.85;2.17;;;-4.20;99.90;;;;;;5091326;28;20040;-42
2022/04/03 01:45:43;;;;;;;5.97;2.55;;;-4.20;99.90;;;;;;5090703;28;20063;-41
2022/04/03 01:48:09;;;;;;;5.32;2.33;;;-4.10;99.90;;;;;;5090946;28;20032;-42
2022/04/03 01:50:35;;;;;;;4.85;2.42;;;-4.10;99.90;;;;;;5090483;28;20244;-43
2022/04/03 01:53:01;;;;;;;6.82;2.95;;;-4.10;99.90;;;;;;5090547;28;20115;-41
2022/04/03 01:55:27;;;;;;;6.55;2.75;;;-4.10;99.90;;;;;;5090771;28;20039;-41
2022/04/03 01:57:54;;;;;;;6.30;2.50;;;-4.20;99.90;;;;;;5090045;28;20055;-42
2022/04/03 02:00:20;;;;;;;6.43;2.95;;;-4.20;99.90;;;;;;5090376;28;20040;-42
2022/04/03 02:02:46;;;;;;;6.20;2.53;;;-4.20;99.90;;;;;;5090305;28;20097;-41
2022/04/03 02:05:12;;;;;;;6.90;2.50;;;-4.20;99.90;;;;;;5090184;28;20425;-41
2022/04/03 02:07:38;;;;;;;5.20;2.55;;;-4.20;99.90;;;;;;5089968;28;20091;-41
2022/04/03 02:10:08;;;;;;;14.13;4.82;;;-4.20;99.90;;;;;;5089812;28;20054;-42
2022/04/03 02:12:39;;;;;;;6.78;2.80;;;-4.20;99.90;;;;;;5071745;28;20085;-42
2022/04/03 02:15:06;;;;;;;5.75;2.92;;;-4.00;99.90;;;;;;5089479;28;20044;-42
2022/04/03 02:17:32;;;;;;;7.45;2.95;;;-4.10;99.90;;;;;;5071727;28;20043;-42
2022/04/03 02:19:57;;;;;;;6.47;2.72;;;-4.00;99.90;;;;;;5089783;28;20093;-41
2022/04/03 02:22:23;;;;;;;7.20;2.50;;;-3.80;99.90;;;;;;5089975;28;20378;-41
2022/04/03 02:24:49;;;;;;;6.00;2.58;;;-3.80;99.90;;;;;;5089988;28;20039;-42
2022/04/03 02:27:14;;;;;;;6.13;3.05;;;-3.80;99.90;;;;;;5089922;28;20039;-42
2022/04/03 02:29:40;;;;;;;5.97;2.72;;;-3.80;99.90;;;;;;5089904;28;20161;-40
2022/04/03 02:32:06;;;;;;;4.57;2.25;;;-3.80;99.90;;;;;;5089867;28;20051;-41
2022/04/03 02:34:32;;;;;;;6.22;2.45;;;-3.80;99.90;;;;;;5089864;28;20101;-40
2022/04/03 02:36:57;;;;;;;5.13;3.25;;;-3.80;99.90;;;;;;5089150;28;20056;-43
2022/04/03 02:39:23;;;;;;;6.10;3.03;;;-3.80;99.90;;;;;;5089138;28;20040;-41
2022/04/03 02:41:49;;;;;;;11.98;2.70;;;-3.80;99.90;;;;;;5089429;28;20097;-41
2022/04/03 02:44:16;;;;;;;4.80;2.50;;;-3.60;99.90;;;;;;5089758;28;20138;-42
2022/04/03 02:46:41;;;;;;;7.32;2.33;;;-3.60;99.90;;;;;;5089445;28;20028;-43
2022/04/03 02:49:08;;;;;;;6.70;2.38;;;-3.50;99.90;;;;;;5089365;28;20036;-45
2022/04/03 02:51:35;;;;;;;4.65;2.25;;;-3.30;99.90;;;;;;5089370;28;20370;-42
2022/04/03 02:54:01;;;;;;;4.47;2.33;;;-3.20;99.90;;;;;;5089213;28;20104;-41
2022/04/03 02:56:27;;;;;;;8.00;2.42;;;-3.00;99.90;;;;;;5089137;28;20119;-43
2022/04/03 02:58:56;;;;;;;5.75;2.38;;;-2.90;99.90;;;;;;5089161;28;20144;-41
2022/04/03 03:01:22;;;;;;;8.13;2.85;;;-2.70;99.90;;;;;;5089197;28;20097;-41
2022/04/03 03:03:50;;;;;;;13.00;3.58;;;-2.60;99.90;;;;;;5088850;28;20051;-43
2022/04/03 03:06:16;;;;;;;4.63;2.40;;;-2.50;99.90;;;;;;5088952;28;20048;-43
2022/04/03 03:08:42;;;;;;;9.48;2.50;;;-2.40;99.90;;;;;;5089273;28;20085;-43
2022/04/03 03:11:08;;;;;;;5.22;2.35;;;-2.20;99.90;;;;;;5088919;28;20767;-42
2022/04/03 03:13:34;;;;;;;5.57;2.83;;;-2.00;99.90;;;;;;5089332;28;20051;-42
2022/04/03 03:15:59;;;;;;;8.05;2.60;;;-2.10;99.90;;;;;;5088824;28;20087;-42
2022/04/03 03:18:26;;;;;;;5.47;3.45;;;-1.90;99.90;;;;;;5089333;28;20351;-44
2022/04/03 03:20:51;;;;;;;4.63;2.70;;;-1.80;99.90;;;;;;5088810;28;20044;-43
2022/04/03 03:23:17;;;;;;;7.20;2.70;;;-1.80;99.90;;;;;;5089043;28;20367;-43
2022/04/03 03:25:45;;;;;;;4.30;2.28;;;-1.70;99.90;;;;;;5088858;28;20032;-42
2022/04/03 03:28:14;;;;;;;6.30;2.40;;;-1.60;99.90;;;;;;5088880;28;20314;-42
2022/04/03 03:30:40;;;;;;;6.90;2.55;;;-1.50;99.90;;;;;;5089290;28;20435;-41
2022/04/03 03:33:06;;;;;;;6.53;2.72;;;-1.50;99.90;;;;;;5088745;28;20130;-42
2022/04/03 03:35:33;;;;;;;4.95;2.78;;;-1.40;99.90;;;;;;5089322;28;20090;-41
2022/04/03 03:37:59;;;;;;;4.90;3.13;;;-1.40;99.90;;;;;;5088736;28;20052;-42
2022/04/03 03:40:27;;;;;;;6.18;3.13;;;-1.30;99.90;;;;;;5088461;28;20040;-41
2022/04/03 03:42:52;;;;;;;6.05;2.63;;;-1.30;99.90;;;;;;5088971;28;20048;-43
2022/04/03 03:45:18;;;;;;;6.55;3.25;;;-1.10;99.90;;;;;;5088976;28;20055;-44
2022/04/03 03:47:45;;;;;;;9.98;3.85;;;-0.70;99.90;;;;;;5089348;28;20465;-42
2022/04/03 03:50:13;;;;;;;10.15;3.53;;;-1.10;99.90;;;;;;5092989;28;20044;-42
2022/04/03 03:52:39;;;;;;;6.95;3.67;;;-1.10;99.90;;;;;;5093353;28;20534;-41
2022/04/03 03:55:06;;;;;;;7.07;3.25;;;-0.90;99.90;;;;;;5092491;28;20051;-42
2022/04/03 03:57:31;;;;;;;5.82;3.60;;;-1.10;99.90;;;;;;5092858;28;20044;-42
2022/04/03 03:59:57;;;;;;;7.00;3.47;;;-0.80;99.90;;;;;;5092414;28;20090;-43
2022/04/03 04:02:23;;;;;;;5.38;2.67;;;-0.90;99.90;;;;;;5092659;28;20040;-42
2022/04/03 04:04:48;;;;;;;8.70;3.40;;;-0.90;99.90;;;;;;5092528;28;20040;-42
2022/04/03 04:07:14;;;;;;;6.30;3.60;;;-0.30;99.90;;;;;;5092078;28;20044;-42
2022/04/03 04:09:41;;;;;;;6.47;3.55;;;-0.80;99.90;;;;;;5092570;28;20502;-41
2022/04/03 04:12:09;;;;;;;5.55;3.38;;;-0.80;99.90;;;;;;5092509;28;20374;-43
2022/04/03 04:14:36;;;;;;;7.88;4.00;;;-0.80;99.90;;;;;;5092613;28;20617;-42
2022/04/03 04:17:03;;;;;;;8.80;3.92;;;-0.70;99.90;;;;;;5092367;28;20051;-41
2022/04/03 04:19:29;;;;;;;7.25;3.95;;;-0.70;99.90;;;;;;5091945;28;20131;-42
2022/04/03 04:21:56;;;;;;;6.95;3.90;;;-0.50;99.90;;;;;;5091867;28;20090;-42
2022/04/03 04:24:21;;;;;;;7.75;3.90;;;-0.60;99.90;;;;;;5091756;28;20044;-41
2022/04/03 04:26:47;;;;;;;8.65;3.78;;;-0.60;99.90;;;;;;5092181;28;20040;-41
2022/04/03 04:29:12;;;;;;;7.13;3.88;;;-0.60;99.90;;;;;;5092320;28;20363;-43
2022/04/03 04:31:38;;;;;;;8.10;4.30;;;-0.60;99.90;;;;;;5092170;28;20390;-41
2022/04/03 04:34:04;;;;;;;5.50;3.53;;;-0.50;99.90;;;;;;5073826;28;20493;-42
2022/04/03 04:36:30;;;;;;;10.63;3.97;;;-0.50;99.90;;;;;;5073743;28;20155;-42
2022/04/03 04:38:57;;;;;;;6.00;3.90;;;-0.60;99.90;;;;;;5091463;28;20048;-42
2022/04/03 04:41:23;;;;;;;9.98;3.63;;;-0.60;99.90;;;;;;5092013;28;20048;-43
2022/04/03 04:43:49;;;;;;;4.45;3.13;;;-0.60;99.90;;;;;;5090525;28;20040;-41
2022/04/03 04:46:15;;;;;;;7.22;3.75;;;-0.60;99.90;;;;;;5091734;28;20051;-41
2022/04/03 04:48:41;;;;;;;7.57;3.63;;;-0.80;99.90;;;;;;5092090;28;20047;-42
2022/04/03 04:51:06;;;;;;;9.30;3.78;;;-0.80;99.90;;;;;;5091742;28;20054;-42
2022/04/03 04:53:32;;;;;;;6.93;3.80;;;-0.90;99.90;;;;;;5091649;28;20040;-42
2022/04/03 04:55:58;;;;;;;8.75;4.18;;;-0.90;99.90;;;;;;5091622;28;20047;-42
2022/04/03 04:58:23;;;;;;;7.38;4.15;;;-1.00;99.90;;;;;;5091049;28;20032;-41
2022/04/03 05:00:49;;;;;;;7.35;4.25;;;-0.90;99.90;;;;;;5091234;28;20042;-42
2022/04/03 05:03:15;;;;;;;11.20;4.72;;;-0.90;99.90;;;;;;5091811;28;20489;-42
2022/04/03 05:05:40;;;;;;;8.50;4.55;;;-1.00;99.90;;;;;;5091821;28;20398;-44
2022/04/03 05:08:07;;;;;;;10.77;4.18;;;-0.90;99.90;;;;;;5091147;28;20113;-44
2022/04/03 05:10:33;;;;;;;6.75;4.15;;;-0.80;99.90;;;;;;5091538;28;20036;-42
2022/04/03 05:12:59;;;;;;;10.13;4.90;;;-0.80;99.90;;;;;;5091593;28;20043;-41
2022/04/03 05:15:29;;;;;;;10.93;4.60;;;-0.60;99.90;;;;;;5091174;28;20478;-43
2022/04/03 05:17:54;;;;;;;9.75;4.78;;;-0.60;99.90;;;;;;5091455;28;20044;-41
2022/04/03 05:20:20;;;;;;;9.55;4.93;;;-0.60;99.90;;;;;;5091080;28;20089;-41
2022/04/03 05:22:46;;;;;;;6.45;4.28;;;-0.50;99.90;;;;;;5090815;28;20048;-42
2022/04/03 05:25:11;;;;;;;7.72;4.50;;;-0.50;99.90;;;;;;5090714;28;20127;-41
2022/04/03 05:27:39;;;;;;;9.13;4.72;;;-0.40;99.90;;;;;;5090978;28;20048;-43
2022/04/03 05:30:06;;;;;;;8.57;4.65;;;-0.40;99.90;;;;;;5091335;28;20451;-42
2022/04/03 05:32:32;;;;;;;10.98;4.65;;;-0.50;99.90;;;;;;5090694;28;20585;-44
2022/04/03 05:34:59;;;;;;;8.07;4.82;;;-0.30;99.90;;;;;;5052400;28;20501;-41
2022/04/03 05:37:25;;;;;;;7.32;4.82;;;-0.30;99.90;;;;;;5082555;28;20047;-41
2022/04/03 05:39:51;;;;;;;8.82;4.82;;;-0.30;99.90;;;;;;5090210;28;20543;-42
2022/04/03 05:42:18;;;;;;;7.57;4.45;;;0.20;99.90;;;;;;5090672;28;20390;-42
2022/04/03 05:44:44;;;;;;;6.75;3.72;;;0.50;99.90;;;;;;5090738;28;20028;-43
2022/04/03 05:47:10;;;;;;;6.60;3.60;;;0.90;99.90;;;;;;5090686;28;20071;-41
2022/04/03 05:49:37;;;;;;;6.95;3.33;;;0.70;99.90;;;;;;5091078;28;20058;-42
2022/04/03 05:52:03;;;;;;;5.70;3.45;;;0.60;99.90;;;;;;5090995;28;20040;-42
2022/04/03 05:54:29;;;;;;;6.93;2.50;;;0.40;99.90;;;;;;5089969;28;20101;-43
2022/04/03 05:56:55;;;;;;;4.57;2.80;;;0.30;99.90;;;;;;5090426;28;20040;-43
2022/04/03 05:59:21;;;;;;;6.70;3.17;;;0.20;99.90;;;;;;5089977;28;20569;-43
2022/04/03 06:01:50;;;;;;;7.95;3.15;;;0.20;99.90;;;;;;5090324;28;20123;-43
2022/04/03 06:04:16;;;;;;;6.93;2.97;;;0.20;99.90;;;;;;5090401;28;20548;-44
2022/04/03 06:06:41;;;;;;;10.00;3.00;;;0.20;99.90;;;;;;5090247;28;20076;-43
2022/04/03 06:09:08;;;;;;;5.28;2.95;;;0.30;99.90;;;;;;5090315;28;20058;-41
2022/04/03 06:11:34;;;;;;;5.30;2.60;;;0.30;99.90;;;;;;5089551;28;20048;-42
2022/04/03 06:14:00;;;;;;;5.22;2.90;;;0.40;99.90;;;;;;5090162;28;20055;-43
2022/04/03 06:16:27;;;;;;;8.27;3.13;;;0.50;99.90;;;;;;5090260;28;20046;-42
2022/04/03 06:18:53;;;;;;;7.63;2.97;;;0.70;99.90;;;;;;5090259;28;20044;-42
2022/04/03 06:21:19;;;;;;;5.28;2.35;;;2.60;99.90;;;;;;5089839;28;20055;-41
2022/04/03 06:23:45;;;;;;;4.40;2.35;;;4.50;99.90;;;;;;5089576;28;20563;-42
2022/04/03 06:26:11;;;;;;;4.30;2.13;;;5.40;99.90;;;;;;5089810;28;20044;-42
2022/04/03 06:28:37;;;;;;;4.30;2.17;;;4.90;99.90;;;;;;5071271;28;20097;-42
2022/04/03 06:31:02;;;;;;;4.95;1.92;;;4.60;99.90;;;;;;5089997;28;20062;-43
2022/04/03 06:33:28;;;;;;;3.65;1.75;;;6.70;99.90;;;;;;5089772;28;20044;-41
2022/04/03 06:35:54;;;;;;;5.00;1.80;;;5.30;99.90;;;;;;5089404;28;20044;-42
2022/04/03 06:38:20;;;;;;;4.95;1.70;;;4.60;99.90;;;;;;5089126;28;20048;-43
2022/04/03 06:40:51;;;;;;;3.63;1.63;;;4.00;99.90;;;;;;5089725;28;20048;-42
2022/04/03 06:43:21;;;;;;;5.85;1.88;;;3.40;99.90;;;;;;5089992;28;20126;-43
2022/04/03 06:45:51;;;;;;;5.38;2.00;;;3.30;99.90;;;;;;5089882;28;20036;-43
2022/04/03 06:48:17;;;;;;;4.15;2.05;;;4.00;99.90;;;;;;5089851;28;20039;-43
2022/04/03 06:50:43;;;;;;;6.80;1.63;;;4.30;99.90;;;;;;5089670;28;20043;-42
2022/04/03 06:53:08;;;;;;;3.45;1.50;;;3.80;99.90;;;;;;5089641;28;20040;-41
2022/04/03 06:55:34;;;;;;;5.78;1.30;;;3.50;99.90;;;;;;5070976;28;20516;-41
2022/04/03 06:58:01;;;;;;;3.25;1.40;;;3.80;99.90;;;;;;5089216;28;20040;-42
2022/04/03 07:00:27;;;;;;;3.83;1.63;;;3.20;99.90;;;;;;5089340;28;20064;-42
2022/04/03 07:02:53;;;;;;;4.57;1.65;;;3.30;99.90;;;;;;5089522;28;20058;-43
2022/04/03 07:05:19;;;;;;;4.00;1.63;;;3.80;99.90;;;;;;5089369;28;20424;-43
2022/04/03 07:07:45;;;;;;;5.88;1.42;;;3.80;99.90;;;;;;5088739;28;20323;-42
2022/04/03 07:10:11;;;;;;;5.57;1.73;;;3.80;99.90;;;;;;5089253;28;20032;-42
2022/04/03 07:12:37;;;;;;;3.05;1.52;;;4.00;99.90;;;;;;5089110;28;20703;-42
2022/04/03 07:15:04;;;;;;;3.20;1.48;;;3.90;99.90;;;;;;5088925;28;20502;-42
2022/04/03 07:17:30;;;;;;;3.72;1.17;;;3.90;99.90;;;;;;5088827;28;20047;-42
2022/04/03 07:19:56;;;;;;;5.43;1.30;;;4.00;99.90;;;;;;5089066;28;20128;-42
2022/04/03 07:22:21;;;;;;;3.88;1.35;;;4.20;99.90;;;;;;5088653;28;20573;-42
2022/04/03 07:24:47;;;;;;;4.57;1.17;;;4.40;99.90;;;;;;5088869;28;20051;-42
2022/04/03 07:27:13;;;;;;;2.65;1.63;;;5.90;99.90;;;;;;5088844;28;20035;-41
2022/04/03 07:29:39;;;;;;;2.03;0.80;;;4.40;99.90;;;;;;5088246;28;20356;-43
2022/04/03 07:32:05;;;;;;;2.28;1.05;;;4.40;99.90;;;;;;5088861;28;20079;-41
2022/04/03 07:34:31;;;;;;;2.65;1.00;;;4.40;99.90;;;;;;5088867;28;20075;-41
2022/04/03 07:36:57;;;;;;;5.57;0.80;;;5.70;99.90;;;;;;5088909;28;20128;-42
2022/04/03 07:39:24;;;;;;;3.60;0.98;;;4.90;99.90;;;;;;5088830;28;20044;-42
2022/04/03 07:41:50;;;;;;;3.08;0.80;;;5.40;99.90;;;;;;5088570;28;20044;-43
2022/04/03 07:44:16;;;;;;;4.22;0.70;;;5.30;99.90;;;;;;5071029;28;20480;-42
2022/04/03 07:46:42;;;;;;;4.03;1.63;;;5.40;99.90;;;;;;5088926;28;20036;-43
2022/04/03 07:49:07;;;;;;;2.83;1.02;;;5.90;99.90;;;;;;5089162;28;20044;-42
2022/04/03 07:51:34;;;;;;;2.45;1.13;;;6.00;99.90;;;;;;5088642;28;20050;-41
2022/04/03 07:53:59;;;;;;;4.35;0.93;;;6.30;99.90;;;;;;5089075;28;20283;-43
2022/04/03 07:56:25;;;;;;;4.15;0.65;;;6.90;99.90;;;;;;5088659;28;20535;-44
2022/04/03 07:58:51;;;;;;;5.10;0.82;;;8.40;99.90;;;;;;5087917;28;20055;-43
2022/04/03 08:01:17;;;;;;;4.00;0.70;;;7.20;99.90;;;;;;5088257;28;20040;-42
2022/04/03 08:03:42;;;;;;;2.90;0.55;;;7.10;99.90;;;;;;5088254;28;20050;-43
2022/04/03 08:06:09;;;;;;;3.45;0.40;;;7.10;99.90;;;;;;5088828;28;20417;-43
2022/04/03 08:08:35;;;;;;;2.67;0.63;;;7.10;99.90;;;;;;5088211;28;20552;-41
2022/04/03 08:11:01;;;;;;;15.90;3.30;;;7.00;99.90;;;;;;5088687;28;20048;-42
2022/04/03 08:13:26;;;;;;;4.22;0.65;;;7.10;99.90;;;;;;5088620;28;20047;-42
2022/04/03 08:15:52;;;;;;;1.98;0.68;;;7.20;99.90;;;;;;5088455;28;20036;-43
2022/04/03 08:18:19;;;;;;;4.03;0.68;;;8.10;99.90;;;;;;5088488;28;20587;-44
2022/04/03 08:20:45;;;;;;;4.47;0.50;;;9.40;99.90;;;;;;5088433;28;20139;-44
2022/04/03 08:23:11;;;;;;;1.92;0.50;;;9.20;99.90;;;;;;5088373;28;20109;-43
2022/04/03 08:25:37;;;;;;;4.25;0.50;;;9.70;99.90;;;;;;5088402;28;20040;-42
2022/04/03 08:28:03;;;;;;;3.63;0.40;;;11.00;99.90;;;;;;5088179;28;20128;-42
2022/04/03 08:30:34;;;;;;;1.17;0.32;;;13.40;99.90;;;;;;5087913;28;20040;-44
2022/04/03 08:33:01;;;;;;;2.10;0.50;;;13.10;99.90;;;;;;5088727;28;20095;-44
2022/04/03 08:35:30;;;;;;;3.90;0.35;;;13.60;97.90;;;;;;5090703;28;20044;-42
2022/04/03 08:37:56;;;;;;;4.22;0.35;;;13.90;97.70;;;;;;5092120;28;20040;-43
2022/04/03 08:40:25;;;;;;;1.02;0.40;;;14.20;97.10;;;;;;5091707;28;20075;-44
2022/04/03 08:42:52;;;;;;;4.63;0.30;;;13.80;95.80;;;;;;5091556;28;20127;-42
2022/04/03 08:45:18;;;;;;;2.30;0.30;;;13.80;96.60;;;;;;5091586;28;20040;-43
2022/04/03 08:47:55;;;;;;;2.00;0.22;;;14.80;96.00;;;;;;5091421;28;20112;-44
2022/04/03 08:50:26;;;;;;;3.25;0.10;;;15.20;94.00;;;;;;5091712;28;20032;-46
2022/04/03 08:52:53;;;;;;;1.73;0.30;;;15.10;94.50;;;;;;5091740;28;20040;-44
2022/04/03 08:55:21;;;;;;;3.70;0.32;;;15.50;95.70;;;;;;5091765;28;20378;-43
2022/04/03 08:57:47;;;;;;;2.50;0.35;;;16.40;92.20;;;;;;5091639;28;20050;-44
2022/04/03 09:00:14;;;;;;;2.55;0.20;;;17.30;89.30;;;;;;5091087;28;20067;-44
2022/04/03 09:02:40;;;;;;;4.63;0.10;;;18.20;83.60;;;;;;5091370;28;20096;-46
2022/04/03 09:05:09;;;;;;;4.25;0.50;;;18.20;77.50;;;;;;5091422;28;20032;-45
2022/04/03 09:07:35;;;;;;;2.53;0.20;;;17.60;75.10;;;;;;5091012;28;20047;-45
2022/04/03 09:10:13;;;;;;;2.75;0.20;;;18.50;75.50;;;;;;5090895;28;20436;-44
2022/04/03 09:12:50;;;;;;;2.75;0.20;;;19.90;73.20;;;;;;5091295;28;20127;-44
2022/04/03 09:15:21;;;;;;;0.73;0.10;;;21.40;69.40;;;;;;5091262;28;20060;-47
2022/04/03 09:17:52;;;;;;;3.15;0.20;;;21.90;64.20;;;;;;5091161;28;20107;-44
2022/04/03 09:20:37;;;;;;;2.13;0.00;;;22.40;63.80;;;;;;5091259;28;20052;-43
2022/04/03 09:23:07;;;;;;;0.73;0.10;;;22.80;60.20;;;;;;5090872;28;20123;-44
2022/04/03 09:25:36;;;;;;;2.58;0.10;;;22.90;59.30;;;;;;5091235;28;20047;-44
2022/04/03 09:28:04;;;;;;;1.90;0.28;;;22.60;57.50;;;;;;5091141;28;20098;-45
2022/04/03 09:30:38;;;;;;;0.90;0.05;;;22.20;57.80;;;;;;5090363;28;20043;-44
2022/04/03 09:33:06;;;;;;;1.67;0.20;;;21.80;55.20;;;;;;5091091;28;20043;-45
2022/04/03 09:35:53;;;;;;;2.60;0.20;;;20.80;56.40;;;;;;5090972;28;20042;-45
2022/04/03 09:38:19;;;;;;;2.67;0.30;;;19.80;56.00;;;;;;5077475;28;20052;-45
2022/04/03 09:40:51;;;;;;;3.63;0.20;;;18.60;57.80;;;;;;5090553;28;20040;-45
2022/04/03 09:43:27;;;;;;;4.93;0.55;;;17.50;57.80;;;;;;5091010;28;20059;-44
2022/04/03 09:45:54;;;;;;;2.63;0.20;;;16.40;59.10;;;;;;5089959;28;20378;-45
2022/04/03 09:48:24;;;;;;;7.53;0.40;;;15.10;59.50;;;;;;5090707;28;20587;-44
2022/04/03 09:51:19;;;;;;;2.78;0.10;;;13.70;61.30;;;;;;5090754;28;20048;-44
2022/04/03 09:53:49;;;;;;;3.15;0.30;;;12.70;64.10;;;;;;5071015;28;20094;-43
2022/04/03 09:56:28;;;;;;;1.90;0.10;;;12.10;66.00;;;;;;5090865;28;20040;-43
2022/04/03 09:58:57;;;;;;;4.50;0.20;;;11.70;67.50;;;;;;5090130;28;20100;-44
2022/04/03 10:01:38;;;;;;;3.47;0.20;;;11.40;69.30;;;;;;5072725;28;20204;-44
2022/04/03 10:04:09;;;;;;;1.48;0.20;;;12.10;72.40;;;;;;5090901;28;20690;-43
2022/04/03 10:06:36;;;;;;;2.90;0.35;;;12.90;73.80;;;;;;5091089;28;20039;-44
2022/04/03 10:09:02;;;;;;;1.58;0.20;;;14.90;73.20;;;;;;5090560;28;20051;-43
2022/04/03 10:11:29;;;;;;;3.75;0.10;;;17.10;70.30;;;;;;5090600;28;20475;-44
2022/04/03 10:13:56;;;;;;;0.82;0.10;;;18.80;65.30;;;;;;5072017;28;20562;-45
2022/04/03 10:16:23;;;;;;;1.05;0.20;;;18.80;60.70;;;;;;5090457;28;20043;-47
2022/04/03 10:18:49;;;;;;;5.28;0.10;;;17.50;58.40;;;;;;5089450;28;20040;-43
2022/04/03 10:21:42;;;;;;;0.80;0.10;;;16.20;57.90;;;;;;5089972;28;20036;-44
2022/04/03 10:24:15;;;;;;;2.15;0.10;;;15.00;57.60;;;;;;5089541;28;20142;-45
2022/04/03 10:26:46;;;;;;;1.88;0.10;;;14.00;60.90;;;;;;5089839;28;20039;-44
2022/04/03 10:29:12;;;;;;;3.33;0.10;;;13.20;62.70;;;;;;5070535;28;20070;-45
2022/04/03 10:31:39;;;;;;;2.10;0.20;;;12.70;64.30;;;;;;5089753;28;20036;-44
2022/04/03 10:34:05;;;;;;;5.25;0.20;;;12.20;65.80;;;;;;5089242;28;20140;-46
2022/04/03 10:36:32;;;;;;;4.07;0.25;;;11.70;66.90;;;;;;5081227;28;20050;-44
2022/04/03 10:38:59;;;;;;;2.15;0.20;;;11.40;68.40;;;;;;5088207;28;20512;-44
2022/04/03 10:41:37;;;;;;;3.78;0.32;;;11.40;70.10;;;;;;5087820;28;20490;-44
2022/04/03 10:44:23;;;;;;;2.92;0.40;;;10.80;70.40;;;;;;5088434;28;20390;-45
2022/04/03 10:47:04;;;;;;;5.70;0.15;;;11.90;71.40;;;;;;5088658;28;20389;-44
2022/04/03 10:49:43;;;;;;;2.13;0.30;;;12.70;69.30;;;;;;5087808;28;20044;-45
2022/04/03 10:52:23;;;;;;;2.10;0.10;;;12.50;67.90;;;;;;5088091;28;20051;-44
2022/04/03 10:54:51;;;;;;;2.28;0.10;;;12.40;67.00;;;;;;5088272;28;20072;-46
2022/04/03 10:57:35;;;;;;;3.70;0.20;;;11.80;67.30;;;;;;5069628;28;20424;-43
2022/04/03 11:00:11;;;;;;;5.35;0.28;;;11.60;69.10;;;;;;5087741;28;20048;-44
2022/04/03 11:02:36;;;;;;;3.55;0.43;;;11.40;69.70;;;;;;5087886;28;20776;-47
2022/04/03 11:05:20;;;;;;;2.35;0.20;;;11.60;70.80;;;;;;5087927;28;20032;-44
2022/04/03 11:07:47;;;;;;;1.63;0.10;;;11.10;70.50;;;;;;5087904;28;20087;-45
2022/04/03 11:10:12;;;;;;;2.88;0.20;;;10.80;70.60;;;;;;5069402;28;20086;-46
2022/04/03 11:12:45;;;;;;;1.60;0.45;;;10.30;70.90;;;;;;5088266;28;20071;-44
2022/04/03 11:15:14;;;;;;;4.90;0.35;;;9.80;71.50;;;;;;5088292;28;20047;-43
2022/04/03 11:17:49;;;;;;;1.52;0.10;;;9.60;72.30;;;;;;5087694;28;20509;-43
2022/04/03 11:20:32;;;;;;;3.50;0.80;;;9.60;73.40;;;;;;5087730;28;20040;-45
2022/04/03 11:22:59;;;;;;;2.97;0.20;;;9.80;75.40;;;;;;5087678;28;20044;-43
2022/04/03 11:25:25;;;;;;;2.95;0.20;;;10.70;74.70;;;;;;5069369;28;20047;-44
2022/04/03 11:27:51;;;;;;;2.92;0.30;;;9.80;73.20;;;;;;5087145;28;20040;-44
2022/04/03 11:30:19;;;;;;;2.28;0.10;;;9.60;73.20;;;;;;5084957;28;20066;-44
2022/04/03 11:32:46;;;;;;;2.40;0.22;;;9.70;73.80;;;;;;5087979;28;20051;-43
2022/04/03 11:35:12;;;;;;;1.77;0.30;;;10.30;74.20;;;;;;5087580;28;20052;-43
2022/04/03 11:37:45;;;;;;;2.00;0.30;;;9.10;73.90;;;;;;5069531;28;20104;-45
2022/04/03 11:40:14;;;;;;;3.70;0.63;;;10.00;74.70;;;;;;5086684;28;20059;-43
2022/04/03 11:42:39;;;;;;;3.08;0.20;;;8.90;74.50;;;;;;5087655;28;20173;-44
2022/04/03 11:45:07;;;;;;;1.00;0.43;;;9.10;75.60;;;;;;5087047;28;20122;-42
2022/04/03 11:47:33;;;;;;;1.83;0.20;;;9.50;76.50;;;;;;5087727;28;20036;-44
2022/04/03 11:50:15;;;;;;;1.45;0.20;;;9.80;76.40;;;;;;5081648;28;20059;-43
2022/04/03 11:52:41;;;;;;;1.88;0.40;;;10.00;73.40;;;;;;5084573;28;20040;-42
2022/04/03 11:55:11;;;;;;;2.30;0.22;;;10.20;74.80;;;;;;5087402;28;20386;-44
2022/04/03 11:57:53;;;;;;;3.08;0.30;;;10.20;75.20;;;;;;5087784;28;20175;-46
2022/04/03 12:00:22;;;;;;;;;;;9.60;76.70;;;;;;5088111;28;20044;-48
2022/04/03 12:02:57;;;;;;;2.63;0.52;;;9.10;78.10;;;;;;5088478;28;19924;-47
2022/04/03 12:05:22;;;;;;;4.28;0.40;;;8.90;78.50;;;;;;5087849;28;20454;-46
2022/04/03 12:07:49;;;;;;;2.00;0.40;;;8.70;78.80;;;;;;5088229;28;20130;-40
2022/04/03 12:10:26;;;;;;;5.15;0.25;;;8.60;80.50;;;;;;5071889;28;20151;-55
2022/04/03 12:12:54;;;;;;;3.17;0.60;;;8.30;81.80;;;;;;5089285;28;20732;-49
2022/04/03 12:15:22;;;;;;;5.57;1.15;;;7.70;82.50;;;;;;5088906;28;20075;-57
2022/04/03 12:17:55;;;;;;;3.88;0.65;;;8.00;83.40;;;;;;5089062;28;20040;-56
2022/04/03 12:20:35;;;;;;;2.60;0.40;;;8.10;84.60;;;;;;5089035;28;20143;-49
2022/04/03 12:23:00;;;;;;;2.67;0.45;;;8.10;85.90;;;;;;5088914;28;20047;-50
2022/04/03 12:25:26;;;;;;;3.15;0.52;;;8.40;84.70;;;;;;5088987;28;20385;-44
2022/04/03 12:27:52;;;;;;;4.53;0.85;;;8.80;85.50;;;;;;5087993;28;20044;-44
2022/04/03 12:30:18;;;;;;;3.50;0.60;;;8.70;85.90;;;;;;5088690;28;20537;-57
2022/04/03 12:32:44;;;;;;;2.50;0.80;;;8.60;85.70;;;;;;5081635;28;20150;-56
2022/04/03 12:35:11;;;;;;;3.58;0.50;;;8.40;84.90;;;;;;5088931;28;20137;-57
2022/04/03 12:37:42;;;;;;;3.72;0.20;;;8.70;85.20;;;;;;5089103;28;20047;-55
2022/04/03 12:40:15;;;;;;;3.35;0.47;;;9.30;85.50;;;;;;5088193;28;20040;-51
2022/04/03 12:42:42;;;;;;;3.88;0.40;;;8.90;85.10;;;;;;5088470;28;20486;-56
2022/04/03 12:45:17;;;;;;;3.88;0.30;;;9.00;84.30;;;;;;5087922;28;20048;-53
2022/04/03 12:47:47;;;;;;;1.00;0.17;;;9.10;83.70;;;;;;5089399;28;20043;-53
2022/04/03 12:50:18;;;;;;;0.77;0.20;;;9.10;83.50;;;;;;5088530;28;20044;-54
2022/04/03 12:52:54;;;;;;;1.02;0.20;;;8.90;81.80;;;;;;5089006;28;20059;-52